createdAt,value
2019-05-19T00:01:07.648Z,50.10
2019-05-19T00:03:36.784Z,49.90
2019-05-19T00:06:05.864Z,49.53
2019-05-19T00:08:35.450Z,50.50
2019-05-19T00:11:24.299Z,48.93
2019-05-19T00:14:12.928Z,48.27
2019-05-19T00:16:47.847Z,47.77
2019-05-19T00:19:26.569Z,49.53
2019-05-19T00:22:00.859Z,52.33
2019-05-19T00:24:30.022Z,53.33
2019-05-19T00:26:59.133Z,55.87
2019-05-19T00:29:31.190Z,55.43
2019-05-19T00:32:00.195Z,55.97
2019-05-19T00:34:32.213Z,54.90
2019-05-19T00:37:01.064Z,53.57
2019-05-19T00:39:29.881Z,55.93
2019-05-19T00:41:58.646Z,56.07
2019-05-19T00:44:32.349Z,56.83
2019-05-19T00:47:01.353Z,57.13
2019-05-19T00:49:40.898Z,55.57
2019-05-19T00:52:01.309Z,55.90
2019-05-19T00:54:32.817Z,55.93
2019-05-19T00:57:02.224Z,53.70
2019-05-19T00:59:33.662Z,54.37
2019-05-19T01:02:03.941Z,52.60
2019-05-19T01:04:32.747Z,54.50
2019-05-19T01:07:01.637Z,53.40
2019-05-19T01:09:36.869Z,53.97
2019-05-19T01:12:04.608Z,52.53
2019-05-19T01:14:33.220Z,51.87
2019-05-19T01:17:02.157Z,52.37
2019-05-19T01:19:32.774Z,52.10
2019-05-19T01:22:01.312Z,51.13
2019-05-19T01:24:29.874Z,51.73
2019-05-19T01:26:58.483Z,52.43
2019-05-19T01:29:27.183Z,51.03
2019-05-19T01:31:55.962Z,52.43
2019-05-19T01:34:24.713Z,52.63
2019-05-19T01:36:53.230Z,52.40
2019-05-19T01:39:21.821Z,51.93
2019-05-19T01:41:50.485Z,51.73
2019-05-19T01:44:19.205Z,50.47
2019-05-19T01:46:47.903Z,53.23
2019-05-19T01:49:19.094Z,53.70
2019-05-19T01:51:48.373Z,53.10
2019-05-19T01:54:17.427Z,51.77
2019-05-19T01:56:46.222Z,54.80
2019-05-19T01:59:15.417Z,52.10
2019-05-19T02:01:44.293Z,52.57
2019-05-19T02:04:12.988Z,52.37
2019-05-19T02:06:41.684Z,53.90
2019-05-19T02:09:10.653Z,54.37
2019-05-19T02:11:42.588Z,52.70
2019-05-19T02:14:11.275Z,55.00
2019-05-19T02:16:40.100Z,54.00
2019-05-19T02:19:08.853Z,56.07
2019-05-19T02:21:37.548Z,55.27
2019-05-19T02:24:06.224Z,54.97
2019-05-19T02:26:34.811Z,57.07
2019-05-19T02:29:03.353Z,55.17
2019-05-19T02:31:31.815Z,56.23
2019-05-19T02:34:00.409Z,55.57
2019-05-19T02:36:29.252Z,55.97
2019-05-19T02:38:58.079Z,57.13
2019-05-19T02:41:26.790Z,56.63
2019-05-19T02:43:55.352Z,55.70
2019-05-19T02:46:24.057Z,55.10
2019-05-19T02:48:52.755Z,56.97
2019-05-19T02:51:21.549Z,56.83
2019-05-19T02:53:50.358Z,56.33
2019-05-19T02:56:18.931Z,55.47
2019-05-19T02:58:47.565Z,56.10
2019-05-19T03:01:16.135Z,55.47
2019-05-19T03:03:44.766Z,53.63
2019-05-19T03:06:13.509Z,53.93
2019-05-19T03:08:42.228Z,55.63
2019-05-19T03:11:10.961Z,51.97
2019-05-19T03:13:39.725Z,55.00
2019-05-19T03:16:08.319Z,54.93
2019-05-19T03:18:36.911Z,54.70
2019-05-19T03:21:11.252Z,53.10
2019-05-19T03:23:35.775Z,53.77
2019-05-19T03:26:06.142Z,51.10
2019-05-19T03:28:34.742Z,55.03
2019-05-19T03:31:25.782Z,52.00
2019-05-19T03:33:54.487Z,50.53
2019-05-19T03:36:23.359Z,50.07
2019-05-19T03:38:52.228Z,51.43
2019-05-19T03:41:20.748Z,49.87
2019-05-19T03:43:50.122Z,48.80
2019-05-19T03:46:19.266Z,47.43
2019-05-19T03:48:49.051Z,47.20
2019-05-19T03:51:30.978Z,46.73
2019-05-19T03:53:59.794Z,46.70
2019-05-19T03:56:29.169Z,45.37
2019-05-19T03:58:58.169Z,44.63
2019-05-19T04:01:27.410Z,44.03
2019-05-19T04:03:56.685Z,43.53
2019-05-19T04:06:25.460Z,43.63
2019-05-19T04:08:57.048Z,43.17
2019-05-19T04:11:25.869Z,44.30
2019-05-19T04:13:54.631Z,44.47
2019-05-19T04:16:23.402Z,41.63
2019-05-19T04:18:52.283Z,41.20
2019-05-19T04:21:21.012Z,40.53
2019-05-19T04:23:49.598Z,41.13
2019-05-19T04:26:18.288Z,42.07
2019-05-19T04:28:46.926Z,40.90
2019-05-19T04:31:15.547Z,40.87
2019-05-19T04:33:43.988Z,39.57
2019-05-19T04:36:12.641Z,41.07
2019-05-19T04:38:41.233Z,40.27
2019-05-19T04:41:09.753Z,41.20
2019-05-19T04:43:38.316Z,41.77
2019-05-19T04:46:07.005Z,40.97
2019-05-19T04:48:35.524Z,42.87
2019-05-19T04:51:04.073Z,44.47
2019-05-19T04:53:32.739Z,44.57
2019-05-19T04:56:01.417Z,44.13
2019-05-19T04:58:30.172Z,44.07
2019-05-19T05:00:58.878Z,43.13
2019-05-19T05:03:27.412Z,43.53
2019-05-19T05:05:56.050Z,43.63
2019-05-19T05:08:30.421Z,42.33
2019-05-19T05:10:54.883Z,43.67
2019-05-19T05:13:23.370Z,43.87
2019-05-19T05:15:51.865Z,42.73
2019-05-19T05:18:20.406Z,42.40
2019-05-19T05:20:48.958Z,43.73
2019-05-19T05:23:17.394Z,42.87
2019-05-19T05:25:46.074Z,40.07
2019-05-19T05:28:14.710Z,41.03
2019-05-19T05:30:43.457Z,40.80
2019-05-19T05:33:12.355Z,40.27
2019-05-19T05:35:40.824Z,39.00
2019-05-19T05:38:09.343Z,40.33
2019-05-19T05:40:37.869Z,40.43
2019-05-19T05:43:06.312Z,40.57
2019-05-19T05:45:34.807Z,39.93
2019-05-19T05:48:03.382Z,38.97
2019-05-19T05:50:31.978Z,39.13
2019-05-19T05:53:00.644Z,37.40
2019-05-19T05:55:29.379Z,39.13
2019-05-19T05:58:00.931Z,38.83
2019-05-19T06:00:29.784Z,39.17
2019-05-19T06:02:58.841Z,38.83
2019-05-19T06:05:29.031Z,40.03
2019-05-19T06:07:57.957Z,38.03
2019-05-19T06:10:33.053Z,39.47
2019-05-19T06:13:11.979Z,39.97
2019-05-19T06:15:40.924Z,39.37
2019-05-19T06:18:09.385Z,40.43
2019-05-19T06:20:41.253Z,39.97
2019-05-19T06:23:10.369Z,40.03
2019-05-19T06:25:39.074Z,40.90
2019-05-19T06:28:07.964Z,40.20
2019-05-19T06:30:36.400Z,39.83
2019-05-19T06:33:06.907Z,38.83
2019-05-19T06:35:35.367Z,38.70
2019-05-19T06:38:04.109Z,37.10
2019-05-19T06:40:32.690Z,37.63
2019-05-19T06:43:01.354Z,36.90
2019-05-19T06:45:30.274Z,36.80
2019-05-19T06:47:59.071Z,36.60
2019-05-19T06:50:27.628Z,36.07
2019-05-19T06:53:12.726Z,36.10
2019-05-19T06:55:26.523Z,36.17
2019-05-19T06:57:55.185Z,34.23
2019-05-19T07:00:24.198Z,33.57
2019-05-19T07:02:53.031Z,34.47
2019-05-19T07:05:22.554Z,33.83
2019-05-19T07:11:40.092Z,33.20
2019-05-19T07:14:55.580Z,32.07
2019-05-19T07:18:11.681Z,31.50
2019-05-19T07:20:40.425Z,30.93
2019-05-19T07:23:09.032Z,31.40
2019-05-19T07:25:40.793Z,31.23
2019-05-19T07:28:09.285Z,31.77
2019-05-19T07:30:37.909Z,29.70
2019-05-19T07:33:06.585Z,30.07
2019-05-19T07:35:35.115Z,30.40
2019-05-19T07:38:03.658Z,30.37
2019-05-19T07:40:32.277Z,29.60
2019-05-19T07:43:00.760Z,29.10
2019-05-19T07:45:29.254Z,29.57
2019-05-19T07:47:57.902Z,27.97
2019-05-19T07:50:26.477Z,29.57
2019-05-19T07:52:55.171Z,30.00
2019-05-19T07:55:23.589Z,30.43
2019-05-19T07:57:52.198Z,28.13
2019-05-19T08:00:23.575Z,29.07
2019-05-19T08:02:52.182Z,27.77
2019-05-19T08:05:20.661Z,30.13
2019-05-19T08:07:49.423Z,27.97
2019-05-19T08:10:18.134Z,27.93
2019-05-19T08:12:46.701Z,29.10
2019-05-19T08:15:15.116Z,27.00
2019-05-19T08:17:43.595Z,29.77
2019-05-19T08:20:13.167Z,29.10
2019-05-19T08:22:41.731Z,29.37
2019-05-19T08:25:12.183Z,29.30
2019-05-19T08:27:41.953Z,29.47
2019-05-19T08:30:10.746Z,29.00
2019-05-19T08:32:39.548Z,30.80
2019-05-19T08:35:08.228Z,30.80
2019-05-19T08:37:46.292Z,30.57
2019-05-19T08:40:16.614Z,28.93
2019-05-19T08:42:45.200Z,30.37
2019-05-19T08:45:13.988Z,29.97
2019-05-19T08:47:43.007Z,30.30
2019-05-19T08:50:11.718Z,28.13
2019-05-19T08:52:40.493Z,29.20
2019-05-19T08:55:10.773Z,27.50
2019-05-19T08:57:39.824Z,28.83
2019-05-19T09:00:08.589Z,26.63
2019-05-19T09:02:42.384Z,27.80
2019-05-19T09:05:20.036Z,27.27
2019-05-19T09:07:48.733Z,28.20
2019-05-19T09:10:18.964Z,25.37
2019-05-19T09:12:47.794Z,26.83
2019-05-19T09:15:16.249Z,26.43
2019-05-19T09:17:44.887Z,26.97
2019-05-19T09:20:13.808Z,25.83
2019-05-19T09:22:42.949Z,31.90
2019-05-19T09:25:11.421Z,29.60
2019-05-19T09:27:40.254Z,25.37
2019-05-19T09:30:16.428Z,25.33
2019-05-19T09:32:45.090Z,26.10
2019-05-19T09:35:13.772Z,26.03
2019-05-19T09:37:42.371Z,25.87
2019-05-19T09:40:11.216Z,25.30
2019-05-19T09:42:41.931Z,24.07
2019-05-19T09:45:10.339Z,29.97
2019-05-19T09:47:38.940Z,25.70
2019-05-19T09:50:07.353Z,25.70
2019-05-19T09:52:35.828Z,24.70
2019-05-19T09:55:04.791Z,37.43
2019-05-19T09:57:33.232Z,39.63
2019-05-19T10:00:05.398Z,25.47
2019-05-19T10:02:33.925Z,26.87
2019-05-19T10:05:02.491Z,25.53
2019-05-19T10:07:31.127Z,26.37
2019-05-19T10:10:00.168Z,25.30
2019-05-19T10:12:29.874Z,25.47
2019-05-19T10:14:58.303Z,23.77
2019-05-19T10:17:26.741Z,23.30
2019-05-19T10:19:56.027Z,24.17
2019-05-19T10:22:24.581Z,23.33
2019-05-19T10:25:04.450Z,24.53
2019-05-19T10:27:36.460Z,23.93
2019-05-19T10:33:23.513Z,24.30
2019-05-19T10:36:47.562Z,24.77
2019-05-19T10:40:17.669Z,24.23
2019-05-19T10:42:54.091Z,23.03
2019-05-19T10:50:20.803Z,24.47
2019-05-19T10:56:27.333Z,24.40
2019-05-19T10:59:05.323Z,24.40
2019-05-19T11:01:59.279Z,23.10
2019-05-19T11:22:06.020Z,28.00
2019-05-19T11:35:47.009Z,25.87
2019-05-19T11:38:16.104Z,28.00
2019-05-19T11:40:45.528Z,27.53
2019-05-19T11:43:14.343Z,28.10
2019-05-19T11:45:43.340Z,26.73
2019-05-19T11:48:23.832Z,28.10
2019-05-19T11:50:52.442Z,28.20
2019-05-19T11:53:21.057Z,28.63
2019-05-19T11:56:05.481Z,29.00
2019-05-19T11:58:21.736Z,28.77
2019-05-19T12:00:53.442Z,30.13
2019-05-19T12:03:25.531Z,30.20
2019-05-19T12:05:54.402Z,30.40
2019-05-19T12:08:24.138Z,30.50
2019-05-19T12:10:53.115Z,30.17
2019-05-19T12:13:23.272Z,30.00
2019-05-19T12:15:55.501Z,32.03
2019-05-19T12:18:27.974Z,30.77
2019-05-19T12:21:01.221Z,30.80
2019-05-19T12:23:29.965Z,30.70
2019-05-19T12:26:02.797Z,29.20
2019-05-19T12:28:37.237Z,30.77
2019-05-19T12:31:08.098Z,32.23
2019-05-19T12:33:54.446Z,31.33
2019-05-19T12:36:11.131Z,29.53
2019-05-19T12:38:39.678Z,31.77
2019-05-19T12:41:08.421Z,29.73
2019-05-19T12:43:46.519Z,32.17
2019-05-19T12:46:16.978Z,32.07
2019-05-19T12:48:49.629Z,31.73
2019-05-19T12:51:17.354Z,30.13
2019-05-19T12:53:46.132Z,33.57
2019-05-19T12:56:17.117Z,32.93
2019-05-19T12:58:45.765Z,33.10
2019-05-19T13:01:19.173Z,31.07
2019-05-19T13:03:48.349Z,33.27
2019-05-19T13:06:20.873Z,32.77
2019-05-19T13:09:08.316Z,33.07
2019-05-19T13:11:38.467Z,33.27
2019-05-19T13:14:08.611Z,35.03
2019-05-19T13:16:39.139Z,33.80
2019-05-19T13:19:23.510Z,33.37
2019-05-19T13:22:04.602Z,30.23
2019-05-19T13:24:36.052Z,32.40
2019-05-19T13:27:08.256Z,30.63
2019-05-19T13:29:40.805Z,30.73
2019-05-19T13:32:12.605Z,32.33
2019-05-19T13:34:50.669Z,33.57
2019-05-19T13:37:30.390Z,31.90
2019-05-19T13:40:05.293Z,31.80
2019-05-19T13:42:39.099Z,31.43
2019-05-19T13:45:16.079Z,31.70
2019-05-19T13:47:49.378Z,32.57
2019-05-19T13:50:22.214Z,31.30
2019-05-19T13:52:52.234Z,31.50
2019-05-19T13:55:31.132Z,32.23
2019-05-19T13:58:03.859Z,32.93
2019-05-19T14:00:32.347Z,30.60
2019-05-19T14:03:04.715Z,28.77
2019-05-19T14:05:41.505Z,31.00
2019-05-19T14:08:10.429Z,32.43
2019-05-19T14:10:42.504Z,30.80
2019-05-19T14:13:16.560Z,30.10
2019-05-19T14:15:51.180Z,29.23
2019-05-19T14:18:25.190Z,30.90
2019-05-19T14:21:02.753Z,28.10
2019-05-19T14:23:40.384Z,27.57
2019-05-19T14:26:14.191Z,27.67
2019-05-19T14:28:46.466Z,28.47
2019-05-19T14:31:21.449Z,27.67
2019-05-19T14:34:55.903Z,27.00
2019-05-19T14:36:36.861Z,26.73
2019-05-19T14:39:06.365Z,26.33
2019-05-19T14:41:44.105Z,26.10
2019-05-19T14:44:18.081Z,27.20
2019-05-19T14:46:52.117Z,25.77
2019-05-19T14:49:24.400Z,27.13
2019-05-19T14:52:00.563Z,26.17
2019-05-19T14:54:33.942Z,26.83
2019-05-19T14:57:06.727Z,27.03
2019-05-19T14:59:38.539Z,26.67
2019-05-19T15:02:15.982Z,27.90
2019-05-19T15:04:46.964Z,27.93
2019-05-19T15:07:22.697Z,26.77
2019-05-19T15:09:58.528Z,25.73
2019-05-19T15:12:30.095Z,24.13
2019-05-19T15:15:11.519Z,25.93
2019-05-19T15:17:42.655Z,22.93
2019-05-19T15:20:11.216Z,25.47
2019-05-19T15:22:40.311Z,24.20
2019-05-19T15:25:25.960Z,23.57
2019-05-19T15:28:00.670Z,24.80
2019-05-19T15:30:27.067Z,23.97
2019-05-19T15:32:59.498Z,23.87
2019-05-19T15:35:31.306Z,22.53
2019-05-19T15:38:01.527Z,24.67
2019-05-19T15:40:30.296Z,26.97
2019-05-19T15:42:59.278Z,25.63
2019-05-19T15:45:28.846Z,26.43
2019-05-19T15:47:57.583Z,26.17
2019-05-19T15:50:26.328Z,24.10
2019-05-19T15:52:55.262Z,26.67
2019-05-19T15:55:23.801Z,24.53
2019-05-19T15:57:52.396Z,25.43
2019-05-19T16:00:26.538Z,26.07
2019-05-19T16:02:55.663Z,25.37
2019-05-19T16:05:26.258Z,25.07
2019-05-19T16:07:54.958Z,23.77
2019-05-19T16:10:23.953Z,23.17
2019-05-19T16:12:52.696Z,24.67
2019-05-19T16:15:33.816Z,25.40
2019-05-19T16:18:02.510Z,25.57
2019-05-19T16:20:31.452Z,23.60
2019-05-19T16:23:03.456Z,22.37
2019-05-19T16:25:31.995Z,22.07
2019-05-19T16:28:00.741Z,22.03
2019-05-19T16:30:29.457Z,23.60
2019-05-19T16:32:58.458Z,22.50
2019-05-19T16:35:29.802Z,21.73
2019-05-19T16:38:16.295Z,21.50
2019-05-19T16:40:46.087Z,23.10
2019-05-19T16:43:14.773Z,23.27
2019-05-19T16:45:43.523Z,22.60
2019-05-19T16:48:15.529Z,22.73
2019-05-19T16:50:44.274Z,21.77
2019-05-19T16:53:13.218Z,22.43
2019-05-19T16:55:47.767Z,22.07
2019-05-19T16:58:21.612Z,22.07
2019-05-19T17:00:50.766Z,21.47
2019-05-19T17:03:42.199Z,20.77
2019-05-19T17:06:12.379Z,21.30
2019-05-19T17:08:40.882Z,22.07
2019-05-19T17:11:18.075Z,21.67
2019-05-19T17:13:40.101Z,19.70
2019-05-19T17:16:15.722Z,21.87
2019-05-19T17:19:05.650Z,21.47
2019-05-19T17:21:34.112Z,21.00
2019-05-19T17:24:03.393Z,20.77
2019-05-19T17:26:34.921Z,21.97
2019-05-19T17:29:04.966Z,19.50
2019-05-19T17:31:33.552Z,21.57
2019-05-19T17:34:04.777Z,20.90
2019-05-19T17:36:33.222Z,19.93
2019-05-19T17:39:01.703Z,19.73
2019-05-19T17:41:30.253Z,20.57
2019-05-19T17:43:58.688Z,19.37
2019-05-19T17:46:28.652Z,19.97
2019-05-19T17:48:57.148Z,20.73
2019-05-19T17:51:28.783Z,20.67
2019-05-19T17:53:58.103Z,21.70
2019-05-19T17:56:26.752Z,20.87
2019-05-19T17:58:55.119Z,20.33
2019-05-19T18:01:23.562Z,20.07
2019-05-19T18:03:53.533Z,20.30
2019-05-19T18:06:22.044Z,20.70
2019-05-19T18:08:57.177Z,19.60
2019-05-19T18:11:26.032Z,20.53
2019-05-19T18:13:57.545Z,19.00
2019-05-19T18:16:28.457Z,19.53
2019-05-19T18:19:10.897Z,20.50
2019-05-19T18:21:49.628Z,21.50
2019-05-19T18:24:19.556Z,21.17
2019-05-19T18:26:56.252Z,19.83
2019-05-19T18:29:31.471Z,18.30
2019-05-19T18:31:54.990Z,20.03
2019-05-19T18:34:23.639Z,20.50
2019-05-19T18:36:52.092Z,21.43
2019-05-19T18:39:21.217Z,20.87
2019-05-19T18:41:52.713Z,19.93
2019-05-19T18:44:21.437Z,19.40
2019-05-19T18:46:50.042Z,19.87
2019-05-19T18:49:19.006Z,20.27
2019-05-19T18:51:49.948Z,19.33
2019-05-19T18:54:21.715Z,20.23
2019-05-19T18:56:51.186Z,20.03
2019-05-19T18:59:19.970Z,19.50
2019-05-19T19:01:48.687Z,21.37
2019-05-19T19:04:17.347Z,20.97
2019-05-19T19:06:45.898Z,20.30
2019-05-19T19:09:14.541Z,21.50
2019-05-19T19:11:47.550Z,22.60
2019-05-19T19:14:16.074Z,21.67
2019-05-19T19:16:46.067Z,25.10
2019-05-19T19:19:17.525Z,21.90
2019-05-19T19:21:48.512Z,23.53
2019-05-19T19:24:19.754Z,21.60
2019-05-19T19:26:59.726Z,22.30
2019-05-19T19:29:31.620Z,22.80
2019-05-19T19:32:08.222Z,21.67
2019-05-19T19:34:39.299Z,22.57
2019-05-19T19:39:13.122Z,22.00
2019-05-19T19:40:14.392Z,21.40
2019-05-19T19:42:43.035Z,22.50
2019-05-19T19:45:12.854Z,21.77
2019-05-19T19:47:46.889Z,20.57
2019-05-19T19:50:15.900Z,22.43
2019-05-19T19:52:47.051Z,22.20
2019-05-19T19:55:19.634Z,22.50
2019-05-19T19:57:52.878Z,20.77
2019-05-19T20:03:39.724Z,19.97
2019-05-19T20:06:16.480Z,20.07
2019-05-19T20:10:06.732Z,21.13
2019-05-19T20:14:12.907Z,21.30
2019-05-19T20:24:15.568Z,21.60
2019-05-19T20:35:41.772Z,22.87
2019-05-19T20:45:26.325Z,24.13
2019-05-19T20:48:01.818Z,23.57
2019-05-19T20:51:01.488Z,25.93
2019-05-19T21:00:51.993Z,26.47
2019-05-19T21:06:07.845Z,24.57
2019-05-19T21:11:19.685Z,26.83
2019-05-19T21:17:45.510Z,24.97
2019-05-19T21:20:20.105Z,30.77
2019-05-19T21:23:15.356Z,28.90
2019-05-19T21:25:59.796Z,28.50
2019-05-19T21:29:27.483Z,27.13
2019-05-19T21:31:31.728Z,27.73
2019-05-19T21:34:14.309Z,26.73
2019-05-19T21:37:20.583Z,27.03
2019-05-19T21:39:56.054Z,26.33
2019-05-19T21:42:46.109Z,26.07
2019-05-19T21:45:28.037Z,25.87
2019-05-19T21:48:30.620Z,26.97
2019-05-19T21:51:19.896Z,25.83
2019-05-19T21:53:58.545Z,25.23
2019-05-19T21:56:30.186Z,27.00
2019-05-19T21:59:06.015Z,26.70
2019-05-19T22:02:13.857Z,26.20
2019-05-19T22:04:46.801Z,25.73
2019-05-19T22:13:54.856Z,25.90
2019-05-19T22:16:35.574Z,26.47
2019-05-19T22:19:15.915Z,26.47
2019-05-19T22:21:54.519Z,25.50
2019-05-19T22:24:24.851Z,26.73
2019-05-19T22:26:56.399Z,25.53
2019-05-19T22:29:25.746Z,24.90
2019-05-19T22:31:56.634Z,25.57
2019-05-19T22:34:25.733Z,25.10
2019-05-19T22:36:58.369Z,25.60
2019-05-19T22:39:30.361Z,22.43
2019-05-19T22:42:06.079Z,21.60
2019-05-19T22:44:39.632Z,21.73
2019-05-19T22:47:13.266Z,21.50
2019-05-19T22:49:45.299Z,20.00
2019-05-19T22:52:17.825Z,20.73
2019-05-19T22:54:55.609Z,21.07
2019-05-19T22:57:34.015Z,20.30
2019-05-19T23:00:09.844Z,21.73
2019-05-19T23:02:52.119Z,20.70
2019-05-19T23:05:27.934Z,21.17
2019-05-19T23:08:05.319Z,21.47
2019-05-19T23:10:38.858Z,22.37
2019-05-19T23:13:11.437Z,21.50
2019-05-19T23:16:13.523Z,23.07
2019-05-19T23:18:59.609Z,23.10
2019-05-19T23:21:30.130Z,22.77
2019-05-19T23:24:07.533Z,21.57
2019-05-19T23:26:40.939Z,21.50
2019-05-19T23:29:15.464Z,20.63
2019-05-19T23:32:07.215Z,20.77
2019-05-19T23:34:34.612Z,21.87
2019-05-19T23:37:03.887Z,20.10
2019-05-19T23:39:39.490Z,19.60
2019-05-19T23:42:19.250Z,20.37
2019-05-19T23:44:49.125Z,19.10
2019-05-19T23:47:19.307Z,19.60
2019-05-19T23:49:57.214Z,20.27
2019-05-19T23:52:30.004Z,19.23
2019-05-19T23:54:59.231Z,19.43
2019-05-19T23:57:29.364Z,17.83
